sensor_id;sensor_type;location;lat;lon;timestamp;temperature;humidity
8008;DHT22;4049;49.468;11.200;2023-07-13T00:01:30;22.40;79.00
8008;DHT22;4049;49.468;11.200;2023-07-13T00:03:58;22.40;80.40
8008;DHT22;4049;49.468;11.200;2023-07-13T00:06:24;22.40;80.50
8008;DHT22;4049;49.468;11.200;2023-07-13T00:08:59;22.40;80.40
8008;DHT22;4049;49.468;11.200;2023-07-13T00:11:27;22.40;80.50
8008;DHT22;4049;49.468;11.200;2023-07-13T00:13:54;22.40;81.10
8008;DHT22;4049;49.468;11.200;2023-07-13T00:16:20;22.30;81.10
8008;DHT22;4049;49.468;11.200;2023-07-13T00:18:47;22.30;81.60
8008;DHT22;4049;49.468;11.200;2023-07-13T00:21:14;22.30;82.30
8008;DHT22;4049;49.468;11.200;2023-07-13T00:23:42;22.20;83.40
8008;DHT22;4049;49.468;11.200;2023-07-13T00:26:11;22.20;85.00
8008;DHT22;4049;49.468;11.200;2023-07-13T00:28:39;22.20;84.00
8008;DHT22;4049;49.468;11.200;2023-07-13T00:31:08;22.20;84.90
8008;DHT22;4049;49.468;11.200;2023-07-13T00:33:35;22.20;85.30
8008;DHT22;4049;49.468;11.200;2023-07-13T00:36:03;22.20;85.60
8008;DHT22;4049;49.468;11.200;2023-07-13T00:38:30;22.20;86.00
8008;DHT22;4049;49.468;11.200;2023-07-13T00:40:57;22.20;86.60
8008;DHT22;4049;49.468;11.200;2023-07-13T00:43:27;22.10;86.90
8008;DHT22;4049;49.468;11.200;2023-07-13T00:46:25;22.00;87.60
8008;DHT22;4049;49.468;11.200;2023-07-13T00:48:54;22.00;87.40
8008;DHT22;4049;49.468;11.200;2023-07-13T00:51:27;22.00;88.00
8008;DHT22;4049;49.468;11.200;2023-07-13T00:53:58;22.00;88.90
8008;DHT22;4049;49.468;11.200;2023-07-13T00:56:26;21.90;89.10
8008;DHT22;4049;49.468;11.200;2023-07-13T00:58:55;21.90;90.00
8008;DHT22;4049;49.468;11.200;2023-07-13T01:01:23;21.80;90.20
8008;DHT22;4049;49.468;11.200;2023-07-13T01:03:50;21.80;90.10
8008;DHT22;4049;49.468;11.200;2023-07-13T01:06:17;21.80;90.90
8008;DHT22;4049;49.468;11.200;2023-07-13T01:08:44;21.80;90.90
8008;DHT22;4049;49.468;11.200;2023-07-13T01:11:11;21.70;91.20
8008;DHT22;4049;49.468;11.200;2023-07-13T01:13:38;21.70;91.40
8008;DHT22;4049;49.468;11.200;2023-07-13T01:16:24;21.70;91.60
8008;DHT22;4049;49.468;11.200;2023-07-13T01:18:51;21.70;92.60
8008;DHT22;4049;49.468;11.200;2023-07-13T01:21:19;21.70;92.50
8008;DHT22;4049;49.468;11.200;2023-07-13T01:23:46;21.60;92.40
8008;DHT22;4049;49.468;11.200;2023-07-13T01:26:13;21.60;92.60
8008;DHT22;4049;49.468;11.200;2023-07-13T01:28:40;21.60;93.00
8008;DHT22;4049;49.468;11.200;2023-07-13T01:31:08;21.50;92.80
8008;DHT22;4049;49.468;11.200;2023-07-13T01:33:36;21.50;92.90
8008;DHT22;4049;49.468;11.200;2023-07-13T01:36:04;21.40;93.30
8008;DHT22;4049;49.468;11.200;2023-07-13T01:38:35;21.40;94.00
8008;DHT22;4049;49.468;11.200;2023-07-13T01:41:02;21.40;94.10
8008;DHT22;4049;49.468;11.200;2023-07-13T01:43:29;21.40;94.30
8008;DHT22;4049;49.468;11.200;2023-07-13T01:45:56;21.30;94.30
8008;DHT22;4049;49.468;11.200;2023-07-13T01:48:23;21.30;94.30
8008;DHT22;4049;49.468;11.200;2023-07-13T01:50:50;21.20;94.50
8008;DHT22;4049;49.468;11.200;2023-07-13T01:53:17;21.20;94.70
8008;DHT22;4049;49.468;11.200;2023-07-13T01:55:45;21.10;95.10
8008;DHT22;4049;49.468;11.200;2023-07-13T01:58:11;21.10;95.40
8008;DHT22;4049;49.468;11.200;2023-07-13T02:00:38;21.00;95.50
8008;DHT22;4049;49.468;11.200;2023-07-13T02:03:05;21.00;95.90
8008;DHT22;4049;49.468;11.200;2023-07-13T02:05:32;21.00;95.80
8008;DHT22;4049;49.468;11.200;2023-07-13T02:07:59;21.00;95.70
8008;DHT22;4049;49.468;11.200;2023-07-13T02:10:26;20.90;96.40
8008;DHT22;4049;49.468;11.200;2023-07-13T02:12:55;20.90;96.10
8008;DHT22;4049;49.468;11.200;2023-07-13T02:15:22;20.90;96.30
8008;DHT22;4049;49.468;11.200;2023-07-13T02:17:48;20.80;96.30
8008;DHT22;4049;49.468;11.200;2023-07-13T02:20:15;20.80;96.30
8008;DHT22;4049;49.468;11.200;2023-07-13T02:22:42;20.80;96.50
8008;DHT22;4049;49.468;11.200;2023-07-13T02:25:09;20.80;96.70
8008;DHT22;4049;49.468;11.200;2023-07-13T02:27:36;20.70;96.50
8008;DHT22;4049;49.468;11.200;2023-07-13T02:30:06;20.70;96.50
8008;DHT22;4049;49.468;11.200;2023-07-13T02:32:33;20.70;96.50
8008;DHT22;4049;49.468;11.200;2023-07-13T02:35:01;20.60;96.90
8008;DHT22;4049;49.468;11.200;2023-07-13T02:37:28;20.60;97.00
8008;DHT22;4049;49.468;11.200;2023-07-13T02:39:55;20.60;97.60
8008;DHT22;4049;49.468;11.200;2023-07-13T02:42:22;20.50;97.50
8008;DHT22;4049;49.468;11.200;2023-07-13T02:44:49;20.50;97.90
8008;DHT22;4049;49.468;11.200;2023-07-13T02:47:17;20.40;98.20
8008;DHT22;4049;49.468;11.200;2023-07-13T02:49:44;20.40;98.70
8008;DHT22;4049;49.468;11.200;2023-07-13T02:52:11;20.30;98.50
8008;DHT22;4049;49.468;11.200;2023-07-13T02:54:38;20.30;98.90
8008;DHT22;4049;49.468;11.200;2023-07-13T02:57:05;20.20;99.00
8008;DHT22;4049;49.468;11.200;2023-07-13T02:59:32;20.20;99.30
8008;DHT22;4049;49.468;11.200;2023-07-13T03:02:00;20.20;99.90
8008;DHT22;4049;49.468;11.200;2023-07-13T03:04:28;20.20;99.80
8008;DHT22;4049;49.468;11.200;2023-07-13T03:06:55;20.20;99.90
8008;DHT22;4049;49.468;11.200;2023-07-13T03:09:23;20.10;99.90
8008;DHT22;4049;49.468;11.200;2023-07-13T03:11:52;20.10;99.90
8008;DHT22;4049;49.468;11.200;2023-07-13T03:14:20;20.10;99.90
8008;DHT22;4049;49.468;11.200;2023-07-13T03:16:47;20.00;99.90
8008;DHT22;4049;49.468;11.200;2023-07-13T03:19:13;20.00;99.90
8008;DHT22;4049;49.468;11.200;2023-07-13T03:21:42;19.90;99.90
8008;DHT22;4049;49.468;11.200;2023-07-13T03:24:08;19.80;99.90
8008;DHT22;4049;49.468;11.200;2023-07-13T03:26:35;19.70;99.90
8008;DHT22;4049;49.468;11.200;2023-07-13T03:29:02;19.70;99.90
8008;DHT22;4049;49.468;11.200;2023-07-13T03:31:33;19.60;99.90
8008;DHT22;4049;49.468;11.200;2023-07-13T03:33:59;19.60;99.90
8008;DHT22;4049;49.468;11.200;2023-07-13T03:36:29;19.50;99.90
8008;DHT22;4049;49.468;11.200;2023-07-13T03:38:59;19.50;99.90
8008;DHT22;4049;49.468;11.200;2023-07-13T03:41:26;19.50;99.90
8008;DHT22;4049;49.468;11.200;2023-07-13T03:43:54;19.50;99.90
8008;DHT22;4049;49.468;11.200;2023-07-13T03:46:21;19.40;99.90
8008;DHT22;4049;49.468;11.200;2023-07-13T03:48:47;19.40;99.90
8008;DHT22;4049;49.468;11.200;2023-07-13T03:51:15;19.40;99.90
8008;DHT22;4049;49.468;11.200;2023-07-13T03:53:44;19.40;99.90
8008;DHT22;4049;49.468;11.200;2023-07-13T03:56:13;19.40;99.90
8008;DHT22;4049;49.468;11.200;2023-07-13T03:58:42;19.40;99.90
8008;DHT22;4049;49.468;11.200;2023-07-13T04:01:11;19.30;99.90
8008;DHT22;4049;49.468;11.200;2023-07-13T04:03:38;19.30;99.90
8008;DHT22;4049;49.468;11.200;2023-07-13T04:06:06;19.40;99.90
8008;DHT22;4049;49.468;11.200;2023-07-13T04:08:34;19.30;99.90
8008;DHT22;4049;49.468;11.200;2023-07-13T04:11:02;19.30;99.90
8008;DHT22;4049;49.468;11.200;2023-07-13T04:13:31;19.30;99.90
8008;DHT22;4049;49.468;11.200;2023-07-13T04:15:58;19.20;99.90
8008;DHT22;4049;49.468;11.200;2023-07-13T04:18:25;19.20;99.90
8008;DHT22;4049;49.468;11.200;2023-07-13T04:20:51;19.20;99.90
8008;DHT22;4049;49.468;11.200;2023-07-13T04:23:18;19.10;99.90
8008;DHT22;4049;49.468;11.200;2023-07-13T04:25:46;19.10;99.90
8008;DHT22;4049;49.468;11.200;2023-07-13T04:28:15;19.10;99.90
8008;DHT22;4049;49.468;11.200;2023-07-13T04:30:44;19.10;99.90
8008;DHT22;4049;49.468;11.200;2023-07-13T04:33:11;19.10;99.90
8008;DHT22;4049;49.468;11.200;2023-07-13T04:35:38;19.10;99.90
8008;DHT22;4049;49.468;11.200;2023-07-13T04:38:05;19.00;99.90
8008;DHT22;4049;49.468;11.200;2023-07-13T04:40:32;19.00;99.90
8008;DHT22;4049;49.468;11.200;2023-07-13T04:42:59;19.00;99.90
8008;DHT22;4049;49.468;11.200;2023-07-13T04:45:26;19.00;99.90
8008;DHT22;4049;49.468;11.200;2023-07-13T04:47:54;19.00;99.90
8008;DHT22;4049;49.468;11.200;2023-07-13T04:50:21;19.00;99.90
8008;DHT22;4049;49.468;11.200;2023-07-13T04:52:49;19.00;99.90
8008;DHT22;4049;49.468;11.200;2023-07-13T04:55:17;19.10;99.90
8008;DHT22;4049;49.468;11.200;2023-07-13T04:57:44;19.10;99.90
8008;DHT22;4049;49.468;11.200;2023-07-13T05:00:12;19.10;99.90
8008;DHT22;4049;49.468;11.200;2023-07-13T05:02:42;19.20;99.90
8008;DHT22;4049;49.468;11.200;2023-07-13T05:05:11;19.20;99.90
8008;DHT22;4049;49.468;11.200;2023-07-13T05:07:38;19.20;99.90
8008;DHT22;4049;49.468;11.200;2023-07-13T05:10:06;19.20;99.90
8008;DHT22;4049;49.468;11.200;2023-07-13T05:12:33;19.20;99.90
8008;DHT22;4049;49.468;11.200;2023-07-13T05:14:59;19.20;99.90
8008;DHT22;4049;49.468;11.200;2023-07-13T05:17:26;19.20;99.90
8008;DHT22;4049;49.468;11.200;2023-07-13T05:19:53;19.20;99.90
8008;DHT22;4049;49.468;11.200;2023-07-13T05:22:21;19.20;99.90
8008;DHT22;4049;49.468;11.200;2023-07-13T05:24:48;19.20;99.90
8008;DHT22;4049;49.468;11.200;2023-07-13T05:27:15;19.20;99.90
8008;DHT22;4049;49.468;11.200;2023-07-13T05:29:42;19.30;99.90
8008;DHT22;4049;49.468;11.200;2023-07-13T05:32:09;19.30;99.90
8008;DHT22;4049;49.468;11.200;2023-07-13T05:34:36;19.30;99.90
8008;DHT22;4049;49.468;11.200;2023-07-13T05:37:04;19.30;99.90
8008;DHT22;4049;49.468;11.200;2023-07-13T05:39:32;19.30;99.90
8008;DHT22;4049;49.468;11.200;2023-07-13T05:41:59;19.30;99.90
8008;DHT22;4049;49.468;11.200;2023-07-13T05:44:25;19.30;99.90
8008;DHT22;4049;49.468;11.200;2023-07-13T05:46:52;19.40;99.90
8008;DHT22;4049;49.468;11.200;2023-07-13T05:49:20;19.40;99.90
8008;DHT22;4049;49.468;11.200;2023-07-13T05:51:47;19.50;99.90
8008;DHT22;4049;49.468;11.200;2023-07-13T05:54:14;19.50;99.90
8008;DHT22;4049;49.468;11.200;2023-07-13T05:56:42;19.50;99.90
8008;DHT22;4049;49.468;11.200;2023-07-13T05:59:09;19.60;99.90
8008;DHT22;4049;49.468;11.200;2023-07-13T06:01:36;19.60;99.90
8008;DHT22;4049;49.468;11.200;2023-07-13T06:04:03;19.60;99.90
8008;DHT22;4049;49.468;11.200;2023-07-13T06:06:30;19.70;99.90
8008;DHT22;4049;49.468;11.200;2023-07-13T06:08:57;19.70;99.90
8008;DHT22;4049;49.468;11.200;2023-07-13T06:11:25;19.70;99.90
8008;DHT22;4049;49.468;11.200;2023-07-13T06:13:54;19.80;99.90
8008;DHT22;4049;49.468;11.200;2023-07-13T06:16:21;19.80;99.90
8008;DHT22;4049;49.468;11.200;2023-07-13T06:18:48;19.90;99.90
8008;DHT22;4049;49.468;11.200;2023-07-13T06:21:17;20.00;99.90
8008;DHT22;4049;49.468;11.200;2023-07-13T06:23:45;20.00;99.90
8008;DHT22;4049;49.468;11.200;2023-07-13T06:26:13;20.10;99.90
8008;DHT22;4049;49.468;11.200;2023-07-13T06:28:40;20.10;99.90
8008;DHT22;4049;49.468;11.200;2023-07-13T06:31:10;20.10;98.90
8008;DHT22;4049;49.468;11.200;2023-07-13T06:33:37;20.10;98.70
8008;DHT22;4049;49.468;11.200;2023-07-13T06:36:05;20.10;99.20
8008;DHT22;4049;49.468;11.200;2023-07-13T06:38:33;20.10;99.50
8008;DHT22;4049;49.468;11.200;2023-07-13T06:41:00;20.20;99.90
8008;DHT22;4049;49.468;11.200;2023-07-13T06:43:27;20.30;99.30
8008;DHT22;4049;49.468;11.200;2023-07-13T06:45:55;20.50;99.00
8008;DHT22;4049;49.468;11.200;2023-07-13T06:48:24;20.60;98.50
8008;DHT22;4049;49.468;11.200;2023-07-13T06:50:51;20.80;97.80
8008;DHT22;4049;49.468;11.200;2023-07-13T06:53:24;20.90;97.30
8008;DHT22;4049;49.468;11.200;2023-07-13T06:55:51;21.00;97.10
8008;DHT22;4049;49.468;11.200;2023-07-13T06:58:18;21.00;96.20
8008;DHT22;4049;49.468;11.200;2023-07-13T07:00:46;21.00;96.20
8008;DHT22;4049;49.468;11.200;2023-07-13T07:03:16;20.90;95.60
8008;DHT22;4049;49.468;11.200;2023-07-13T07:05:44;20.90;95.60
8008;DHT22;4049;49.468;11.200;2023-07-13T07:08:11;20.80;96.10
8008;DHT22;4049;49.468;11.200;2023-07-13T07:10:38;20.80;96.00
8008;DHT22;4049;49.468;11.200;2023-07-13T07:13:05;20.70;94.90
8008;DHT22;4049;49.468;11.200;2023-07-13T07:15:32;20.70;96.10
8008;DHT22;4049;49.468;11.200;2023-07-13T07:18:00;20.70;96.50
8008;DHT22;4049;49.468;11.200;2023-07-13T07:20:27;20.80;96.60
8008;DHT22;4049;49.468;11.200;2023-07-13T07:22:57;20.90;96.20
8008;DHT22;4049;49.468;11.200;2023-07-13T07:25:24;20.90;96.70
8008;DHT22;4049;49.468;11.200;2023-07-13T07:27:51;21.00;96.20
8008;DHT22;4049;49.468;11.200;2023-07-13T07:30:18;21.20;95.90
8008;DHT22;4049;49.468;11.200;2023-07-13T07:32:45;21.30;94.40
8008;DHT22;4049;49.468;11.200;2023-07-13T07:35:11;21.40;94.90
8008;DHT22;4049;49.468;11.200;2023-07-13T07:37:38;21.50;92.90
8008;DHT22;4049;49.468;11.200;2023-07-13T07:40:08;21.60;93.90
8008;DHT22;4049;49.468;11.200;2023-07-13T07:42:35;21.70;92.90
8008;DHT22;4049;49.468;11.200;2023-07-13T07:45:02;21.80;92.40
8008;DHT22;4049;49.468;11.200;2023-07-13T07:47:28;22.00;90.70
8008;DHT22;4049;49.468;11.200;2023-07-13T07:49:55;22.10;90.00
8008;DHT22;4049;49.468;11.200;2023-07-13T07:52:22;22.10;90.70
8008;DHT22;4049;49.468;11.200;2023-07-13T07:54:49;22.20;89.90
8008;DHT22;4049;49.468;11.200;2023-07-13T07:57:17;22.10;86.40
8008;DHT22;4049;49.468;11.200;2023-07-13T07:59:44;22.00;86.30
8008;DHT22;4049;49.468;11.200;2023-07-13T08:02:11;21.90;86.90
8008;DHT22;4049;49.468;11.200;2023-07-13T08:04:38;21.90;86.60
8008;DHT22;4049;49.468;11.200;2023-07-13T08:07:05;21.90;86.40
8008;DHT22;4049;49.468;11.200;2023-07-13T08:09:32;22.00;86.10
8008;DHT22;4049;49.468;11.200;2023-07-13T08:11:59;22.00;86.70
8008;DHT22;4049;49.468;11.200;2023-07-13T08:14:27;22.00;89.00
8008;DHT22;4049;49.468;11.200;2023-07-13T08:16:55;22.10;87.30
8008;DHT22;4049;49.468;11.200;2023-07-13T08:19:21;22.20;87.00
8008;DHT22;4049;49.468;11.200;2023-07-13T08:21:48;22.40;85.60
8008;DHT22;4049;49.468;11.200;2023-07-13T08:24:15;22.50;82.70
8008;DHT22;4049;49.468;11.200;2023-07-13T08:26:44;22.60;80.90
8008;DHT22;4049;49.468;11.200;2023-07-13T08:29:11;22.70;80.20
8008;DHT22;4049;49.468;11.200;2023-07-13T08:31:39;22.80;75.90
8008;DHT22;4049;49.468;11.200;2023-07-13T08:34:09;22.90;69.40
8008;DHT22;4049;49.468;11.200;2023-07-13T08:36:36;23.00;65.60
8008;DHT22;4049;49.468;11.200;2023-07-13T08:39:03;23.10;64.30
8008;DHT22;4049;49.468;11.200;2023-07-13T08:41:30;23.20;64.00
8008;DHT22;4049;49.468;11.200;2023-07-13T08:43:59;23.30;62.20
8008;DHT22;4049;49.468;11.200;2023-07-13T08:46:31;23.30;57.90
8008;DHT22;4049;49.468;11.200;2023-07-13T08:49:03;23.40;58.40
8008;DHT22;4049;49.468;11.200;2023-07-13T08:51:36;23.40;55.50
8008;DHT22;4049;49.468;11.200;2023-07-13T08:54:13;23.50;54.90
8008;DHT22;4049;49.468;11.200;2023-07-13T08:56:44;23.50;54.40
8008;DHT22;4049;49.468;11.200;2023-07-13T08:59:14;23.60;52.90
8008;DHT22;4049;49.468;11.200;2023-07-13T09:02:20;23.60;52.40
8008;DHT22;4049;49.468;11.200;2023-07-13T09:04:54;23.60;51.50
8008;DHT22;4049;49.468;11.200;2023-07-13T09:07:31;23.70;52.50
8008;DHT22;4049;49.468;11.200;2023-07-13T09:10:13;23.80;52.30
8008;DHT22;4049;49.468;11.200;2023-07-13T09:12:49;23.80;52.90
8008;DHT22;4049;49.468;11.200;2023-07-13T09:15:26;23.90;52.30
8008;DHT22;4049;49.468;11.200;2023-07-13T09:17:59;24.00;51.50
8008;DHT22;4049;49.468;11.200;2023-07-13T09:20:32;24.10;50.80
8008;DHT22;4049;49.468;11.200;2023-07-13T09:23:03;24.20;51.40
8008;DHT22;4049;49.468;11.200;2023-07-13T09:25:33;24.30;50.70
8008;DHT22;4049;49.468;11.200;2023-07-13T09:28:15;24.30;49.30
8008;DHT22;4049;49.468;11.200;2023-07-13T09:30:49;24.40;49.40
8008;DHT22;4049;49.468;11.200;2023-07-13T09:33:18;24.40;51.40
8008;DHT22;4049;49.468;11.200;2023-07-13T09:35:47;24.50;48.20
8008;DHT22;4049;49.468;11.200;2023-07-13T09:38:15;24.50;48.70
8008;DHT22;4049;49.468;11.200;2023-07-13T09:40:56;24.60;49.70
8008;DHT22;4049;49.468;11.200;2023-07-13T09:43:25;24.70;50.00
8008;DHT22;4049;49.468;11.200;2023-07-13T09:45:54;24.70;48.60
8008;DHT22;4049;49.468;11.200;2023-07-13T09:48:21;24.80;48.40
8008;DHT22;4049;49.468;11.200;2023-07-13T09:50:54;24.90;48.50
8008;DHT22;4049;49.468;11.200;2023-07-13T09:53:21;25.00;46.50
8008;DHT22;4049;49.468;11.200;2023-07-13T09:55:49;25.00;47.60
8008;DHT22;4049;49.468;11.200;2023-07-13T09:58:18;25.00;47.30
8008;DHT22;4049;49.468;11.200;2023-07-13T10:00:55;24.90;47.60
8008;DHT22;4049;49.468;11.200;2023-07-13T10:03:25;24.90;47.00
8008;DHT22;4049;49.468;11.200;2023-07-13T10:05:53;25.00;48.70
8008;DHT22;4049;49.468;11.200;2023-07-13T10:08:22;25.10;44.60
8008;DHT22;4049;49.468;11.200;2023-07-13T10:10:54;25.00;45.10
8008;DHT22;4049;49.468;11.200;2023-07-13T10:13:33;24.90;45.70
8008;DHT22;4049;49.468;11.200;2023-07-13T10:16:03;25.00;44.90
8008;DHT22;4049;49.468;11.200;2023-07-13T10:18:37;25.10;45.50
8008;DHT22;4049;49.468;11.200;2023-07-13T10:21:13;25.30;45.60
8008;DHT22;4049;49.468;11.200;2023-07-13T10:23:42;25.40;43.80
8008;DHT22;4049;49.468;11.200;2023-07-13T10:26:14;25.60;44.80
8008;DHT22;4049;49.468;11.200;2023-07-13T10:28:45;25.80;43.50
8008;DHT22;4049;49.468;11.200;2023-07-13T10:31:14;25.90;42.20
8008;DHT22;4049;49.468;11.200;2023-07-13T10:33:42;25.90;42.20
8008;DHT22;4049;49.468;11.200;2023-07-13T10:36:16;25.90;41.70
8008;DHT22;4049;49.468;11.200;2023-07-13T10:38:44;26.00;42.70
8008;DHT22;4049;49.468;11.200;2023-07-13T10:41:17;26.00;41.50
8008;DHT22;4049;49.468;11.200;2023-07-13T10:43:47;26.10;42.70
8008;DHT22;4049;49.468;11.200;2023-07-13T10:46:18;26.10;42.10
8008;DHT22;4049;49.468;11.200;2023-07-13T10:48:48;26.20;42.70
8008;DHT22;4049;49.468;11.200;2023-07-13T10:51:18;26.30;42.20
8008;DHT22;4049;49.468;11.200;2023-07-13T10:53:47;26.50;40.90
8008;DHT22;4049;49.468;11.200;2023-07-13T10:56:23;26.60;42.70
8008;DHT22;4049;49.468;11.200;2023-07-13T10:59:02;26.70;40.90
8008;DHT22;4049;49.468;11.200;2023-07-13T11:01:41;26.60;42.00
8008;DHT22;4049;49.468;11.200;2023-07-13T11:04:13;26.40;41.60
8008;DHT22;4049;49.468;11.200;2023-07-13T11:06:43;26.30;40.10
8008;DHT22;4049;49.468;11.200;2023-07-13T11:09:32;26.30;40.60
8008;DHT22;4049;49.468;11.200;2023-07-13T11:12:06;26.30;39.50
8008;DHT22;4049;49.468;11.200;2023-07-13T11:14:35;26.30;40.90
8008;DHT22;4049;49.468;11.200;2023-07-13T11:17:24;26.40;40.40
8008;DHT22;4049;49.468;11.200;2023-07-13T11:19:52;26.50;40.80
8008;DHT22;4049;49.468;11.200;2023-07-13T11:22:25;26.70;40.70
8008;DHT22;4049;49.468;11.200;2023-07-13T11:24:59;26.90;40.70
8008;DHT22;4049;49.468;11.200;2023-07-13T11:27:39;27.10;41.40
8008;DHT22;4049;49.468;11.200;2023-07-13T11:30:18;27.20;40.50
8008;DHT22;4049;49.468;11.200;2023-07-13T11:32:50;27.30;40.60
8008;DHT22;4049;49.468;11.200;2023-07-13T11:35:26;27.40;39.60
8008;DHT22;4049;49.468;11.200;2023-07-13T11:37:55;27.40;38.90
8008;DHT22;4049;49.468;11.200;2023-07-13T11:40:24;27.50;39.80
8008;DHT22;4049;49.468;11.200;2023-07-13T11:42:59;27.60;40.70
8008;DHT22;4049;49.468;11.200;2023-07-13T11:45:26;27.60;39.50
8008;DHT22;4049;49.468;11.200;2023-07-13T11:47:54;27.50;37.20
8008;DHT22;4049;49.468;11.200;2023-07-13T11:50:24;27.50;40.00
8008;DHT22;4049;49.468;11.200;2023-07-13T11:52:52;27.50;40.10
8008;DHT22;4049;49.468;11.200;2023-07-13T11:55:24;27.70;39.30
8008;DHT22;4049;49.468;11.200;2023-07-13T11:57:54;27.70;38.50
8008;DHT22;4049;49.468;11.200;2023-07-13T12:00:28;27.60;39.30
8008;DHT22;4049;49.468;11.200;2023-07-13T12:02:57;27.50;39.50
8008;DHT22;4049;49.468;11.200;2023-07-13T12:05:26;27.50;38.90
8008;DHT22;4049;49.468;11.200;2023-07-13T12:07:53;27.50;39.80
8008;DHT22;4049;49.468;11.200;2023-07-13T12:10:24;27.40;39.50
8008;DHT22;4049;49.468;11.200;2023-07-13T12:12:53;27.20;39.30
8008;DHT22;4049;49.468;11.200;2023-07-13T12:15:20;27.20;40.50
8008;DHT22;4049;49.468;11.200;2023-07-13T12:17:49;27.00;39.60
8008;DHT22;4049;49.468;11.200;2023-07-13T12:20:20;27.00;40.70
8008;DHT22;4049;49.468;11.200;2023-07-13T12:22:49;27.00;38.70
8008;DHT22;4049;49.468;11.200;2023-07-13T12:25:17;27.00;40.50
8008;DHT22;4049;49.468;11.200;2023-07-13T12:27:49;27.00;41.40
8008;DHT22;4049;49.468;11.200;2023-07-13T12:30:24;27.20;40.50
8008;DHT22;4049;49.468;11.200;2023-07-13T12:33:00;27.30;41.00
8008;DHT22;4049;49.468;11.200;2023-07-13T12:35:29;27.50;40.70
8008;DHT22;4049;49.468;11.200;2023-07-13T12:38:01;27.70;38.10
8008;DHT22;4049;49.468;11.200;2023-07-13T12:40:32;27.80;39.70
8008;DHT22;4049;49.468;11.200;2023-07-13T12:43:01;27.90;39.70
8008;DHT22;4049;49.468;11.200;2023-07-13T12:45:30;28.00;40.30
8008;DHT22;4049;49.468;11.200;2023-07-13T12:47:58;28.10;39.40
8008;DHT22;4049;49.468;11.200;2023-07-13T12:50:30;28.20;38.50
8008;DHT22;4049;49.468;11.200;2023-07-13T12:53:03;28.30;38.20
8008;DHT22;4049;49.468;11.200;2023-07-13T12:55:40;28.20;37.80
8008;DHT22;4049;49.468;11.200;2023-07-13T12:58:18;28.00;39.00
8008;DHT22;4049;49.468;11.200;2023-07-13T13:00:49;27.90;39.80
8008;DHT22;4049;49.468;11.200;2023-07-13T13:03:24;27.70;38.40
8008;DHT22;4049;49.468;11.200;2023-07-13T13:05:57;27.60;39.20
8008;DHT22;4049;49.468;11.200;2023-07-13T13:08:25;27.50;39.90
8008;DHT22;4049;49.468;11.200;2023-07-13T13:10:52;27.40;39.20
8008;DHT22;4049;49.468;11.200;2023-07-13T13:13:21;27.30;38.80
8008;DHT22;4049;49.468;11.200;2023-07-13T13:15:48;27.10;39.70
8008;DHT22;4049;49.468;11.200;2023-07-13T13:18:16;27.00;40.20
8008;DHT22;4049;49.468;11.200;2023-07-13T13:20:43;27.00;40.30
8008;DHT22;4049;49.468;11.200;2023-07-13T13:23:13;27.00;40.30
8008;DHT22;4049;49.468;11.200;2023-07-13T13:25:43;27.10;40.90
8008;DHT22;4049;49.468;11.200;2023-07-13T13:28:14;27.30;39.40
8008;DHT22;4049;49.468;11.200;2023-07-13T13:30:43;27.30;39.60
8008;DHT22;4049;49.468;11.200;2023-07-13T13:33:11;27.30;40.80
8008;DHT22;4049;49.468;11.200;2023-07-13T13:35:40;27.20;40.90
8008;DHT22;4049;49.468;11.200;2023-07-13T13:38:11;27.10;40.60
8008;DHT22;4049;49.468;11.200;2023-07-13T13:40:40;27.00;41.30
8008;DHT22;4049;49.468;11.200;2023-07-13T13:43:16;26.80;40.80
8008;DHT22;4049;49.468;11.200;2023-07-13T13:45:46;26.80;40.90
8008;DHT22;4049;49.468;11.200;2023-07-13T13:48:18;26.90;41.60
8008;DHT22;4049;49.468;11.200;2023-07-13T13:50:45;27.20;41.50
8008;DHT22;4049;49.468;11.200;2023-07-13T13:53:14;27.40;39.90
8008;DHT22;4049;49.468;11.200;2023-07-13T13:55:41;27.50;40.60
8008;DHT22;4049;49.468;11.200;2023-07-13T13:58:09;27.60;40.50
8008;DHT22;4049;49.468;11.200;2023-07-13T14:00:36;27.70;40.00
8008;DHT22;4049;49.468;11.200;2023-07-13T14:03:05;28.00;40.30
8008;DHT22;4049;49.468;11.200;2023-07-13T14:05:33;28.20;39.70
8008;DHT22;4049;49.468;11.200;2023-07-13T14:08:00;28.40;39.60
8008;DHT22;4049;49.468;11.200;2023-07-13T14:10:27;28.70;39.30
8008;DHT22;4049;49.468;11.200;2023-07-13T14:12:55;28.80;38.50
8008;DHT22;4049;49.468;11.200;2023-07-13T14:15:25;28.70;38.70
8008;DHT22;4049;49.468;11.200;2023-07-13T14:17:53;28.60;38.70
8008;DHT22;4049;49.468;11.200;2023-07-13T14:20:24;28.40;38.50
8008;DHT22;4049;49.468;11.200;2023-07-13T14:22:52;28.10;38.80
8008;DHT22;4049;49.468;11.200;2023-07-13T14:25:21;27.80;38.90
8008;DHT22;4049;49.468;11.200;2023-07-13T14:27:51;27.50;39.40
8008;DHT22;4049;49.468;11.200;2023-07-13T14:30:22;27.30;38.50
8008;DHT22;4049;49.468;11.200;2023-07-13T14:32:49;27.30;40.50
8008;DHT22;4049;49.468;11.200;2023-07-13T14:35:17;27.30;40.00
8008;DHT22;4049;49.468;11.200;2023-07-13T14:37:47;27.40;38.80
8008;DHT22;4049;49.468;11.200;2023-07-13T14:40:15;27.30;38.30
8008;DHT22;4049;49.468;11.200;2023-07-13T14:42:42;27.10;38.70
8008;DHT22;4049;49.468;11.200;2023-07-13T14:45:14;27.00;39.90
8008;DHT22;4049;49.468;11.200;2023-07-13T14:47:42;27.10;40.00
8008;DHT22;4049;49.468;11.200;2023-07-13T14:50:14;27.20;39.50
8008;DHT22;4049;49.468;11.200;2023-07-13T14:52:43;27.30;39.40
8008;DHT22;4049;49.468;11.200;2023-07-13T14:55:13;27.30;38.60
8008;DHT22;4049;49.468;11.200;2023-07-13T14:57:40;27.40;39.60
8008;DHT22;4049;49.468;11.200;2023-07-13T15:00:13;27.40;39.20
8008;DHT22;4049;49.468;11.200;2023-07-13T15:02:44;27.50;39.70
8008;DHT22;4049;49.468;11.200;2023-07-13T15:05:14;27.50;38.70
8008;DHT22;4049;49.468;11.200;2023-07-13T15:07:41;27.50;38.80
8008;DHT22;4049;49.468;11.200;2023-07-13T15:10:20;27.40;39.80
8008;DHT22;4049;49.468;11.200;2023-07-13T15:12:47;27.30;39.10
8008;DHT22;4049;49.468;11.200;2023-07-13T15:15:14;27.20;39.70
8008;DHT22;4049;49.468;11.200;2023-07-13T15:17:42;27.10;40.50
8008;DHT22;4049;49.468;11.200;2023-07-13T15:20:19;27.00;39.30
8008;DHT22;4049;49.468;11.200;2023-07-13T15:22:48;27.00;39.20
8008;DHT22;4049;49.468;11.200;2023-07-13T15:25:19;27.00;39.60
8008;DHT22;4049;49.468;11.200;2023-07-13T15:27:46;26.90;39.50
8008;DHT22;4049;49.468;11.200;2023-07-13T15:30:13;26.80;39.90
8008;DHT22;4049;49.468;11.200;2023-07-13T15:32:41;26.80;39.00
8008;DHT22;4049;49.468;11.200;2023-07-13T15:35:20;26.80;39.30
8008;DHT22;4049;49.468;11.200;2023-07-13T15:37:49;26.70;37.70
8008;DHT22;4049;49.468;11.200;2023-07-13T15:40:17;26.50;38.90
8008;DHT22;4049;49.468;11.200;2023-07-13T15:42:47;26.40;39.50
8008;DHT22;4049;49.468;11.200;2023-07-13T15:45:16;26.30;39.90
8008;DHT22;4049;49.468;11.200;2023-07-13T15:47:44;26.30;39.50
8008;DHT22;4049;49.468;11.200;2023-07-13T15:50:13;26.30;39.50
8008;DHT22;4049;49.468;11.200;2023-07-13T15:52:41;26.30;39.60
8008;DHT22;4049;49.468;11.200;2023-07-13T15:55:10;26.40;40.00
8008;DHT22;4049;49.468;11.200;2023-07-13T15:57:41;26.60;39.60